EmailTwitter


Observations de surface / États-Unis / KJFK (74486)

Régions: Québec | Canada | États-Unis | Europe | France | UK | Ailleurs
Station
Affichage
Infos & localisation pour KJFK (74486) | Aide pour décoder les METARs

Observations prises le 2020-09-21 à 11H51 UTC à NEW YORK/JF KENN, NY (KJFK)

Etat du ciel: quelques nuages.

Température: 12.0 Celsius

Point de rosée: 4.0 Celsius

Humidité relative: 58%

Vents: Nord-nord-est à 15 km/h ou 8 noeuds.

Pression au niveau moyen de la mer: 103.51 kilopascals.

Calage altimétrique: 103.52 kilopascals ou 30.57 pouces de mercure.

Visibilité horizontale: 10.00 milles terrestres ou 16.00 kilomètres.

Observation METAR:

KJFK 211151Z 02008KT 10SM FEW040 FEW300 12/04 A3057 RMK AO2 SLP351 FU FEW300

T01170044 10117 20078 53006 $=